Williamston, North Carolina
Current Conditions -  °F | °C
As of 4:55 AM on Sunday 26 Oct 2014 (Local Time) from KOCW Reporting Station
Clear Clear  
Wind Chill: 52°   Ceiling: Unl
Heat Index: 52°   Visibility: 10mi
Dew Point: 44°   Wind: 0mph
Humidity: 74%   Direction: NA
Pressure: 29.8"   Gusts: NA
Location:  35.85°N, 77.06°W
Report Text: KOCW 260855Z AUTO 00000KT 10SM CLR 11/07 A2980 RMK AO2 T01110066
Loading
Personal Weather Stations






























Interactive Weather Map
Tropical Storm Tracking
New forecast layout! Learn more

10-Day Weather Forecast

Advertisements
Track Severe Weather on mobile